createdAt,value
2022-11-05T00:00:15.916Z,86.31
2022-11-05T00:02:42.417Z,86.64
2022-11-05T00:05:11.495Z,86.35
2022-11-05T00:07:49.464Z,86.85
2022-11-05T00:10:22.718Z,86.40
2022-11-05T00:12:49.320Z,86.16
2022-11-05T00:15:15.903Z,86.00
2022-11-05T00:17:42.928Z,86.45
2022-11-05T00:20:10.750Z,86.21
2022-11-05T00:22:37.222Z,86.74
2022-11-05T00:25:03.964Z,86.61
2022-11-05T00:27:33.149Z,86.39
2022-11-05T00:29:59.656Z,86.47
2022-11-05T00:32:26.185Z,86.80
2022-11-05T00:34:52.624Z,86.68
2022-11-05T00:37:19.084Z,86.16
2022-11-05T00:39:45.523Z,86.44
2022-11-05T00:42:12.024Z,86.69
2022-11-05T00:44:38.525Z,86.79
2022-11-05T00:47:04.987Z,86.38
2022-11-05T00:49:31.437Z,86.63
2022-11-05T00:51:57.882Z,86.59
2022-11-05T00:54:24.394Z,86.70
2022-11-05T00:56:50.904Z,86.82
2022-11-05T00:59:17.308Z,86.98
2022-11-05T01:01:43.945Z,87.18
2022-11-05T01:04:10.614Z,87.05
2022-11-05T01:06:37.086Z,87.65
2022-11-05T01:09:03.578Z,87.68
2022-11-05T01:11:30.070Z,87.23
2022-11-05T01:13:56.537Z,87.67
2022-11-05T01:16:24.201Z,88.03
2022-11-05T01:18:50.699Z,87.32
2022-11-05T01:21:17.241Z,88.25
2022-11-05T01:23:43.754Z,87.97
2022-11-05T01:26:10.494Z,88.08
2022-11-05T01:28:37.082Z,87.62
2022-11-05T01:31:03.791Z,87.80
2022-11-05T01:33:30.282Z,87.76
2022-11-05T01:35:56.741Z,88.69
2022-11-05T01:38:23.672Z,87.63
2022-11-05T01:40:50.279Z,88.39
2022-11-05T01:43:22.402Z,88.55
2022-11-05T01:45:57.303Z,88.03
2022-11-05T01:48:28.346Z,88.49
2022-11-05T01:51:01.250Z,88.06
2022-11-05T01:53:38.703Z,88.33
2022-11-05T01:56:13.578Z,87.91
2022-11-05T01:58:47.523Z,88.48
2022-11-05T02:01:14.664Z,88.18
2022-11-05T02:03:42.822Z,87.89
2022-11-05T02:06:10.319Z,88.36
2022-11-05T02:08:46.064Z,87.87
2022-11-05T02:11:16.533Z,88.22
2022-11-05T02:13:43.086Z,88.16
2022-11-05T02:16:29.729Z,87.76
2022-11-05T02:19:19.093Z,88.36
2022-11-05T02:22:19.887Z,88.07
2022-11-05T02:25:43.480Z,88.97
2022-11-05T02:28:43.417Z,88.51
2022-11-05T02:31:44.882Z,88.51
2022-11-05T02:34:23.268Z,88.21
2022-11-05T02:37:01.918Z,88.15
2022-11-05T02:39:50.878Z,88.05
2022-11-05T02:42:26.440Z,88.10
2022-11-05T02:45:14.841Z,87.28
2022-11-05T02:47:45.227Z,88.23
2022-11-05T02:50:35.291Z,88.09
2022-11-05T02:53:06.117Z,87.60
2022-11-05T02:55:41.735Z,87.45
2022-11-05T02:58:09.065Z,87.48
2022-11-05T03:00:41.012Z,87.52
2022-11-05T03:03:36.470Z,87.26
2022-11-05T03:06:21.627Z,87.48
2022-11-05T03:09:00.048Z,87.85
2022-11-05T03:11:30.536Z,87.65
2022-11-05T03:13:59.945Z,87.58
2022-11-05T03:16:40.468Z,88.15
2022-11-05T03:19:10.625Z,87.76
2022-11-05T03:22:11.113Z,88.14
2022-11-05T03:24:44.821Z,87.05
2022-11-05T03:27:18.413Z,87.95
2022-11-05T03:29:51.137Z,87.94
2022-11-05T03:32:20.398Z,87.34
2022-11-05T03:34:51.541Z,88.14
2022-11-05T03:37:23.097Z,87.83
2022-11-05T03:39:58.536Z,87.73
2022-11-05T03:42:29.064Z,87.52
2022-11-05T03:44:59.556Z,87.82
2022-11-05T03:47:32.537Z,87.94
2022-11-05T03:50:10.058Z,87.53
2022-11-05T03:52:45.769Z,87.64
2022-11-05T03:55:12.675Z,87.50
2022-11-05T03:57:44.020Z,87.70
2022-11-05T04:00:11.368Z,87.52
2022-11-05T04:02:41.643Z,87.47
2022-11-05T04:05:08.262Z,87.93
2022-11-05T04:07:34.711Z,88.09
2022-11-05T04:10:01.240Z,87.71
2022-11-05T04:12:27.715Z,87.84
2022-11-05T04:14:54.283Z,88.29
2022-11-05T04:17:20.734Z,88.43
2022-11-05T04:19:47.309Z,87.53
2022-11-05T04:22:13.755Z,88.12
2022-11-05T04:24:40.288Z,88.00
2022-11-05T04:27:06.740Z,87.91
2022-11-05T04:29:33.213Z,87.97
2022-11-05T04:31:59.686Z,88.01
2022-11-05T04:34:26.190Z,87.54
2022-11-05T04:36:53.225Z,87.76
2022-11-05T04:39:21.286Z,87.80
2022-11-05T04:41:48.126Z,88.03
2022-11-05T04:44:15.567Z,87.21
2022-11-05T04:46:42.316Z,87.73
2022-11-05T04:49:08.796Z,87.44
2022-11-05T04:51:35.285Z,87.77
2022-11-05T04:54:01.714Z,87.38
2022-11-05T04:56:28.220Z,87.93
2022-11-05T04:58:54.693Z,87.54
2022-11-05T05:01:23.416Z,88.28
2022-11-05T05:03:51.561Z,87.57
2022-11-05T05:06:18.601Z,87.39
2022-11-05T05:08:47.073Z,87.48
2022-11-05T05:11:16.593Z,88.31
2022-11-05T05:13:43.364Z,87.46
2022-11-05T05:16:18.209Z,87.50
2022-11-05T05:18:46.349Z,87.68
2022-11-05T05:21:13.657Z,87.17
2022-11-05T05:23:40.110Z,87.55
2022-11-05T05:26:06.592Z,87.09
2022-11-05T05:28:33.411Z,87.13
2022-11-05T05:31:00.655Z,87.17
2022-11-05T05:33:28.215Z,86.95
2022-11-05T05:35:57.625Z,87.75
2022-11-05T05:38:24.733Z,87.33
2022-11-05T05:40:51.756Z,87.05
2022-11-05T05:43:18.274Z,87.81
2022-11-05T05:45:44.783Z,87.42
2022-11-05T05:48:11.354Z,87.87
2022-11-05T05:50:37.864Z,87.78
2022-11-05T05:53:07.816Z,88.10
2022-11-05T05:55:34.488Z,87.23
2022-11-05T05:58:00.932Z,87.50
2022-11-05T06:00:27.432Z,87.25
2022-11-05T06:02:55.717Z,86.95
2022-11-05T06:05:22.404Z,87.49
2022-11-05T06:07:55.933Z,87.08
2022-11-05T06:10:22.774Z,87.34
2022-11-05T06:12:49.231Z,86.79
2022-11-05T06:15:16.089Z,87.69
2022-11-05T06:17:45.931Z,86.80
2022-11-05T06:20:13.125Z,87.51
2022-11-05T06:22:39.671Z,87.46
2022-11-05T06:25:07.305Z,87.20
2022-11-05T06:27:34.358Z,87.14
2022-11-05T06:30:00.843Z,86.97
2022-11-05T06:32:27.292Z,86.90
2022-11-05T06:34:53.788Z,86.99
2022-11-05T06:37:20.257Z,87.36
2022-11-05T06:39:46.744Z,86.72
2022-11-05T06:42:20.286Z,86.75
2022-11-05T06:44:46.789Z,87.12
2022-11-05T06:47:13.231Z,86.70
2022-11-05T06:49:39.723Z,86.90
2022-11-05T06:52:06.292Z,86.92
2022-11-05T06:54:32.781Z,87.34
2022-11-05T06:56:59.249Z,87.30
2022-11-05T06:59:25.762Z,87.10
2022-11-05T07:01:52.317Z,87.29
2022-11-05T07:04:18.823Z,87.19
2022-11-05T07:06:45.252Z,87.08
2022-11-05T07:09:11.782Z,87.19
2022-11-05T07:11:38.224Z,87.05
2022-11-05T07:14:04.750Z,87.43
2022-11-05T07:16:31.233Z,87.15
2022-11-05T07:18:57.690Z,86.88
2022-11-05T07:21:24.236Z,87.32
2022-11-05T07:23:50.838Z,86.50
2022-11-05T07:26:17.338Z,87.55
2022-11-05T07:28:43.825Z,87.67
2022-11-05T07:31:10.281Z,87.35
2022-11-05T07:33:36.963Z,87.47
2022-11-05T07:36:03.711Z,87.55
2022-11-05T07:38:30.642Z,87.47
2022-11-05T07:40:59.468Z,87.42
2022-11-05T07:43:25.977Z,87.08
2022-11-05T07:45:52.518Z,87.55
2022-11-05T07:48:19.027Z,87.22
2022-11-05T07:50:45.587Z,87.70
2022-11-05T07:53:14.483Z,87.51
2022-11-05T07:55:42.009Z,87.59
2022-11-05T07:58:09.700Z,87.51
2022-11-05T08:00:36.762Z,87.37
2022-11-05T08:03:08.176Z,87.62
2022-11-05T08:05:42.514Z,87.11
2022-11-05T08:08:09.525Z,88.38
2022-11-05T08:10:37.041Z,88.01
2022-11-05T08:13:04.881Z,87.98
2022-11-05T08:15:31.527Z,88.16
2022-11-05T08:18:02.740Z,88.40
2022-11-05T08:20:29.393Z,88.08
2022-11-05T08:22:56.361Z,88.28
2022-11-05T08:25:23.525Z,88.06
2022-11-05T08:27:58.633Z,88.30
2022-11-05T08:30:25.729Z,88.32
2022-11-05T08:32:57.015Z,88.37
2022-11-05T08:35:23.739Z,87.87
2022-11-05T08:37:50.233Z,88.03
2022-11-05T08:40:16.854Z,88.12
2022-11-05T08:42:43.366Z,88.61
2022-11-05T08:45:10.144Z,88.25
2022-11-05T08:47:36.659Z,87.79
2022-11-05T08:50:03.316Z,88.11
2022-11-05T08:52:29.843Z,87.77
2022-11-05T08:54:56.474Z,87.67
2022-11-05T08:57:22.993Z,87.90
2022-11-05T08:59:49.537Z,87.74
2022-11-05T09:02:16.146Z,87.18
2022-11-05T09:04:42.698Z,87.88
2022-11-05T09:07:09.126Z,87.39
2022-11-05T09:09:35.606Z,87.71
2022-11-05T09:12:17.407Z,87.83
2022-11-05T09:14:44.003Z,87.29
2022-11-05T09:17:21.565Z,87.11
2022-11-05T09:19:48.516Z,87.20
2022-11-05T09:22:15.212Z,86.93
2022-11-05T09:24:43.209Z,87.39
2022-11-05T09:27:11.327Z,86.91
2022-11-05T09:29:38.057Z,87.18
2022-11-05T09:32:07.331Z,86.77
2022-11-05T09:34:34.806Z,86.81
2022-11-05T09:37:02.202Z,86.97
2022-11-05T09:39:29.027Z,86.86
2022-11-05T09:42:02.121Z,87.00
2022-11-05T09:44:40.661Z,86.56
2022-11-05T09:47:13.166Z,86.57
2022-11-05T09:49:44.276Z,86.50
2022-11-05T09:52:21.233Z,86.91
2022-11-05T09:54:47.943Z,86.77
2022-11-05T09:57:20.996Z,85.95
2022-11-05T10:00:08.571Z,86.77
2022-11-05T10:02:42.038Z,86.62
2022-11-05T10:05:12.161Z,86.64
2022-11-05T10:07:49.116Z,87.41
2022-11-05T10:10:24.301Z,87.21
2022-11-05T10:12:55.068Z,86.99
2022-11-05T10:15:36.332Z,86.79
2022-11-05T10:18:12.396Z,87.44
2022-11-05T10:20:39.348Z,86.57
2022-11-05T10:23:18.182Z,87.04
2022-11-05T10:25:55.005Z,87.08
2022-11-05T10:28:24.305Z,87.19
2022-11-05T10:30:56.348Z,87.21
2022-11-05T10:33:48.512Z,87.04
2022-11-05T10:36:27.705Z,87.57
2022-11-05T10:39:00.391Z,87.09
2022-11-05T10:41:53.647Z,87.16
2022-11-05T10:45:02.233Z,87.18
2022-11-05T10:47:53.252Z,87.88
2022-11-05T10:50:24.470Z,87.38
2022-11-05T10:53:01.176Z,87.58
2022-11-05T10:55:35.128Z,87.61
2022-11-05T10:58:16.731Z,87.80
2022-11-05T11:00:45.591Z,87.35
2022-11-05T11:03:45.848Z,87.49
2022-11-05T11:06:33.204Z,87.35
2022-11-05T11:09:06.367Z,87.64
2022-11-05T11:11:37.685Z,87.32
2022-11-05T11:14:19.998Z,87.43
2022-11-05T11:16:51.446Z,87.42
2022-11-05T11:19:20.861Z,87.38
2022-11-05T11:22:07.194Z,87.28
2022-11-05T11:24:45.399Z,87.21
2022-11-05T11:27:16.648Z,87.33
2022-11-05T11:29:49.610Z,87.32
2022-11-05T11:32:19.260Z,87.37
2022-11-05T11:34:52.960Z,87.27
2022-11-05T11:37:28.904Z,88.02
2022-11-05T11:40:21.992Z,87.37
2022-11-05T11:42:56.267Z,87.26
2022-11-05T11:45:33.122Z,87.13
2022-11-05T11:48:04.501Z,86.54
2022-11-05T11:50:38.593Z,87.31
2022-11-05T11:53:20.264Z,87.39
2022-11-05T11:55:59.000Z,86.89
2022-11-05T11:58:45.976Z,86.79
2022-11-05T12:01:37.580Z,86.91
2022-11-05T12:04:10.056Z,87.04
2022-11-05T12:07:07.333Z,86.73
2022-11-05T12:09:49.914Z,86.49
2022-11-05T12:12:20.888Z,86.88
2022-11-05T12:15:03.532Z,86.54
2022-11-05T12:17:44.949Z,86.67
2022-11-05T12:20:16.782Z,86.16
2022-11-05T12:22:51.862Z,85.76
2022-11-05T12:25:25.216Z,86.18
2022-11-05T12:28:17.046Z,85.46
2022-11-05T12:30:59.760Z,85.87
2022-11-05T12:33:38.329Z,85.30
2022-11-05T12:36:21.200Z,86.04
2022-11-05T12:39:13.286Z,86.10
2022-11-05T12:42:15.269Z,85.80
2022-11-05T12:45:20.886Z,86.18
2022-11-05T12:48:24.701Z,86.58
2022-11-05T12:51:08.342Z,86.51
2022-11-05T12:54:07.351Z,86.24
2022-11-05T12:56:57.168Z,86.72
2022-11-05T12:59:39.700Z,86.44
2022-11-05T13:02:19.483Z,86.90
2022-11-05T13:04:57.794Z,87.30
2022-11-05T13:07:30.200Z,86.77
2022-11-05T13:10:03.187Z,86.63
2022-11-05T13:12:33.206Z,87.15
2022-11-05T13:15:05.286Z,87.20
2022-11-05T13:17:48.985Z,86.96
2022-11-05T13:20:21.322Z,87.21
2022-11-05T13:23:06.339Z,86.95
2022-11-05T13:25:37.619Z,86.54
2022-11-05T13:28:38.352Z,86.58
2022-11-05T13:31:09.870Z,85.92
2022-11-05T13:33:42.239Z,86.13
2022-11-05T13:36:32.382Z,86.61
2022-11-05T13:39:17.834Z,86.17
2022-11-05T13:42:11.945Z,86.03
2022-11-05T13:44:50.655Z,86.18
2022-11-05T13:47:35.982Z,85.84
2022-11-05T13:50:30.430Z,86.59
2022-11-05T13:53:38.614Z,86.43
2022-11-05T13:56:05.096Z,85.99
2022-11-05T13:58:49.803Z,86.45
2022-11-05T14:01:35.012Z,86.08
2022-11-05T14:04:02.976Z,86.10
2022-11-05T14:06:36.144Z,86.28
2022-11-05T14:09:08.630Z,86.38
2022-11-05T14:11:38.293Z,86.57
2022-11-05T14:14:08.704Z,86.60
2022-11-05T14:17:14.848Z,86.53
2022-11-05T14:20:23.514Z,86.49
2022-11-05T14:22:50.204Z,86.56
2022-11-05T14:25:39.658Z,87.13
2022-11-05T14:28:35.210Z,86.76
2022-11-05T14:34:43.039Z,87.13
2022-11-05T14:37:12.660Z,86.61
2022-11-05T14:39:40.865Z,86.92
2022-11-05T14:42:14.837Z,87.37
2022-11-05T14:44:56.649Z,87.81
2022-11-05T14:47:26.091Z,87.67
2022-11-05T14:49:58.603Z,87.63
2022-11-05T14:52:25.146Z,87.28
2022-11-05T14:54:54.946Z,87.19
2022-11-05T14:57:43.190Z,87.78
2022-11-05T15:00:28.470Z,87.19
2022-11-05T15:03:00.813Z,87.31
2022-11-05T15:05:48.607Z,87.37
2022-11-05T15:08:47.487Z,87.33
2022-11-05T15:11:21.687Z,87.98
2022-11-05T15:13:54.259Z,87.35
2022-11-05T15:16:36.697Z,87.66
2022-11-05T15:19:05.050Z,87.74
2022-11-05T15:21:35.903Z,87.90
2022-11-05T15:24:03.873Z,87.60
2022-11-05T15:26:47.376Z,87.65
2022-11-05T15:29:20.395Z,87.47
2022-11-05T15:31:47.391Z,87.37
2022-11-05T15:34:16.843Z,88.20
2022-11-05T15:36:55.396Z,87.65
2022-11-05T15:39:38.580Z,87.79
2022-11-05T15:42:11.983Z,87.96
2022-11-05T15:44:41.044Z,88.10
2022-11-05T15:47:11.111Z,88.01
2022-11-05T15:49:38.025Z,88.11
2022-11-05T15:52:04.714Z,88.45
2022-11-05T15:54:31.761Z,88.35
2022-11-05T15:56:59.652Z,88.44
2022-11-05T15:59:29.300Z,88.77
2022-11-05T16:02:20.538Z,89.04
2022-11-05T16:04:48.296Z,89.22
2022-11-05T16:07:15.965Z,89.26
2022-11-05T16:09:51.962Z,89.71
2022-11-05T16:12:18.476Z,90.07
2022-11-05T16:14:58.377Z,89.96
2022-11-05T16:17:27.966Z,90.22
2022-11-05T16:19:54.828Z,90.13
2022-11-05T16:22:22.106Z,90.63
2022-11-05T16:24:49.339Z,90.43
2022-11-05T16:27:21.898Z,90.75
2022-11-05T16:29:51.627Z,91.05
2022-11-05T16:32:26.915Z,91.22
2022-11-05T16:35:03.203Z,91.23
2022-11-05T16:37:36.450Z,90.71
2022-11-05T16:40:09.634Z,91.16
2022-11-05T16:42:38.871Z,91.18
2022-11-05T16:45:07.149Z,91.33
2022-11-05T16:47:33.858Z,91.74
2022-11-05T16:50:00.480Z,91.29
2022-11-05T16:52:29.907Z,91.53
2022-11-05T16:54:56.402Z,91.82
2022-11-05T16:57:29.078Z,91.87
2022-11-05T16:59:56.156Z,91.62
2022-11-05T17:02:23.125Z,92.09
2022-11-05T17:04:49.972Z,92.31
2022-11-05T17:07:16.582Z,91.89
2022-11-05T17:09:43.196Z,92.29
2022-11-05T17:12:11.522Z,91.84
2022-11-05T17:14:38.440Z,92.18
2022-11-05T17:17:05.574Z,92.33
2022-11-05T17:19:32.230Z,92.26
2022-11-05T17:21:58.815Z,92.03
2022-11-05T17:24:25.324Z,92.52
2022-11-05T17:26:51.854Z,92.71
2022-11-05T17:29:18.324Z,92.65
2022-11-05T17:31:44.795Z,93.00
2022-11-05T17:34:11.355Z,92.60
2022-11-05T17:36:37.843Z,92.38
2022-11-05T17:39:04.307Z,92.86
2022-11-05T17:41:30.829Z,92.52
2022-11-05T17:43:57.726Z,92.75
2022-11-05T17:46:24.577Z,92.90
2022-11-05T17:48:51.069Z,93.05
2022-11-05T17:51:19.311Z,93.07
2022-11-05T17:53:47.033Z,92.76
2022-11-05T17:56:24.572Z,93.29
2022-11-05T17:58:55.904Z,92.92
2022-11-05T18:01:34.320Z,93.54
2022-11-05T18:04:07.157Z,93.28
2022-11-05T18:06:36.599Z,92.87
2022-11-05T18:09:04.621Z,93.20
2022-11-05T18:11:32.208Z,93.00
2022-11-05T18:13:58.774Z,93.01
2022-11-05T18:16:25.364Z,93.19
2022-11-05T18:18:51.938Z,93.12
2022-11-05T18:21:18.644Z,93.03
2022-11-05T18:23:45.292Z,93.18
2022-11-05T18:26:14.033Z,93.16
2022-11-05T18:28:40.895Z,93.10
2022-11-05T18:31:19.024Z,93.15
2022-11-05T18:33:45.946Z,92.67
2022-11-05T18:36:20.156Z,93.30
2022-11-05T18:38:47.947Z,92.92
2022-11-05T18:41:15.100Z,93.15
2022-11-05T18:43:41.627Z,93.16
2022-11-05T18:46:08.162Z,93.02
2022-11-05T18:48:35.303Z,93.32
2022-11-05T18:51:15.658Z,93.04
2022-11-05T18:53:42.473Z,93.20
2022-11-05T18:56:15.254Z,92.79
2022-11-05T18:58:41.908Z,92.97
2022-11-05T19:01:16.935Z,92.56
2022-11-05T19:03:44.035Z,92.79
2022-11-05T19:06:11.180Z,92.88
2022-11-05T19:08:37.775Z,93.02
2022-11-05T19:11:14.170Z,92.83
2022-11-05T19:13:40.837Z,93.20
2022-11-05T19:16:14.123Z,92.55
2022-11-05T19:18:41.449Z,92.83
2022-11-05T19:21:09.724Z,93.00
2022-11-05T19:23:36.473Z,92.74
2022-11-05T19:26:07.299Z,92.78
2022-11-05T19:28:34.411Z,92.73
2022-11-05T19:31:01.075Z,93.03
2022-11-05T19:33:28.034Z,92.63
2022-11-05T19:35:55.174Z,93.00
2022-11-05T19:38:22.724Z,92.95
2022-11-05T19:40:49.861Z,92.93
2022-11-05T19:43:16.402Z,93.11
2022-11-05T19:45:45.243Z,93.05
2022-11-05T19:48:17.846Z,93.00
2022-11-05T19:50:45.873Z,93.00
2022-11-05T19:53:12.504Z,92.83
2022-11-05T19:55:40.691Z,92.99
2022-11-05T19:58:08.192Z,92.71
2022-11-05T20:00:34.717Z,92.54
2022-11-05T20:03:01.480Z,92.84
2022-11-05T20:05:28.072Z,92.59
2022-11-05T20:07:55.360Z,92.73
2022-11-05T20:10:21.860Z,93.18
2022-11-05T20:12:48.336Z,92.61
2022-11-05T20:15:14.960Z,93.15
2022-11-05T20:17:41.450Z,93.00
2022-11-05T20:20:08.444Z,93.02
2022-11-05T20:22:34.929Z,92.87
2022-11-05T20:25:01.400Z,92.64
2022-11-05T20:27:28.870Z,92.90
2022-11-05T20:29:55.429Z,92.99
2022-11-05T20:32:21.892Z,92.85
2022-11-05T20:34:48.401Z,93.10
2022-11-05T20:37:15.007Z,93.05
2022-11-05T20:39:41.491Z,92.76
2022-11-05T20:42:07.951Z,93.07
2022-11-05T20:44:34.425Z,93.16
2022-11-05T20:47:00.935Z,93.28
2022-11-05T20:49:27.428Z,93.39
2022-11-05T20:51:54.653Z,93.39
2022-11-05T20:54:21.200Z,93.42
2022-11-05T20:56:47.724Z,93.56
2022-11-05T20:59:14.263Z,93.84
2022-11-05T21:01:40.895Z,94.19
2022-11-05T21:04:07.558Z,94.13
2022-11-05T21:06:34.173Z,94.20
2022-11-05T21:09:00.945Z,94.57
2022-11-05T21:11:28.021Z,94.46
2022-11-05T21:13:54.598Z,94.68
2022-11-05T21:16:21.593Z,94.55
2022-11-05T21:18:48.133Z,94.69
2022-11-05T21:21:19.565Z,94.82
2022-11-05T21:23:46.011Z,95.52
2022-11-05T21:26:14.223Z,94.52
2022-11-05T21:28:41.759Z,95.09
2022-11-05T21:31:09.051Z,95.18
2022-11-05T21:33:35.761Z,94.90
2022-11-05T21:36:15.556Z,95.14
2022-11-05T21:38:42.280Z,95.59
2022-11-05T21:41:11.164Z,95.95
2022-11-05T21:43:38.744Z,95.95
2022-11-05T21:46:05.301Z,96.18
2022-11-05T21:48:32.288Z,96.45
2022-11-05T21:50:58.925Z,96.52
2022-11-05T21:53:25.945Z,97.11
2022-11-05T21:55:52.428Z,97.23
2022-11-05T21:58:19.235Z,97.94
2022-11-05T22:00:45.657Z,98.47
2022-11-05T22:03:12.151Z,99.02
2022-11-05T22:05:38.659Z,99.09
2022-11-05T22:08:05.317Z,99.17
2022-11-05T22:10:31.836Z,99.66
2022-11-05T22:12:58.316Z,99.48
2022-11-05T22:15:24.792Z,100.00
2022-11-05T22:17:51.325Z,100.00
2022-11-05T22:20:17.819Z,100.00
2022-11-05T22:22:45.053Z,100.00
2022-11-05T22:25:12.004Z,100.00
2022-11-05T22:27:38.485Z,100.00
2022-11-05T22:30:05.464Z,100.00
2022-11-05T22:32:32.017Z,100.00
2022-11-05T22:34:58.647Z,100.00
2022-11-05T22:37:25.086Z,100.00
2022-11-05T22:39:51.579Z,100.00
2022-11-05T22:42:18.147Z,100.00
2022-11-05T22:44:44.668Z,100.00
2022-11-05T22:47:11.232Z,100.00
2022-11-05T22:49:37.863Z,100.00
2022-11-05T22:52:04.634Z,100.00
2022-11-05T22:54:36.422Z,100.00
2022-11-05T22:57:05.462Z,100.00
2022-11-05T22:59:31.912Z,100.00
2022-11-05T23:01:58.613Z,100.00
2022-11-05T23:04:25.093Z,100.00
2022-11-05T23:06:51.642Z,100.00
2022-11-05T23:09:22.672Z,100.00
2022-11-05T23:11:51.646Z,100.00
2022-11-05T23:14:18.214Z,100.00
2022-11-05T23:16:44.916Z,100.00
2022-11-05T23:19:12.026Z,100.00
2022-11-05T23:21:38.463Z,100.00
2022-11-05T23:24:05.393Z,100.00
2022-11-05T23:26:36.819Z,100.00
2022-11-05T23:29:03.351Z,100.00
2022-11-05T23:31:30.020Z,100.00
2022-11-05T23:33:56.776Z,100.00
2022-11-05T23:36:23.209Z,100.00
2022-11-05T23:38:49.652Z,100.00
2022-11-05T23:41:16.121Z,100.00
2022-11-05T23:43:42.590Z,100.00
2022-11-05T23:46:09.049Z,100.00
2022-11-05T23:48:37.372Z,100.00
2022-11-05T23:51:09.767Z,100.00
2022-11-05T23:53:38.365Z,100.00
2022-11-05T23:56:08.200Z,100.00
2022-11-05T23:58:36.212Z,100.00
